Powers Lake, Wisconsin
Current Conditions -  °F | °C
As of 9:55 AM on Saturday 20 Dec 2014 (Local Time) from KBUU Reporting Station
Overcast Overcast  
Wind Chill: 26°   Ceiling: 6500
Heat Index: 26°   Visibility: 7mi
Dew Point: 21°   Wind: 0mph
Humidity: 82%   Direction: NA
Pressure: 30.27"   Gusts: NA
Location:  42.54°N, 88.3°W
Report Text: KBUU 201555Z AUTO 00000KT 7SM OVC065 M03/M06 A3027 RMK AO2 T10331060
Loading
Personal Weather Stations






























Interactive Weather Map New forecast layout! Learn more

10-Day Weather Forecast

Advertisements
Track Severe Weather on mobile